KMTJ/MTJ METAR and TAF weather

Enter ICAO airport designator
Station Type Date Time Source
KMTJ METAR 2021/03/02 02:53 UTC NOAA

KMTJ 020253Z AUTO 17007KT 10SM CLR M02/M10 A3034 RMK AO2 SLP297 T10171100 53007


Station Type Date Time Source
KMTJ Decoded METAR 2021/03/02 02:53 UTC NOAA

MONTROSE REGIONAL AIRPORT, CO, United States (KMTJ) 38-30N 107-54W 1750M
Mar 01, 2021 - 09:53 PM EST / 2021.03.02 0253 UTC
Wind: from the S (170 degrees) at 8 MPH (7 KT):0
Visibility: 10 mile(s):0
Sky conditions: clear
Temperature: 28.9 F (-1.7 C)
Windchill: 21 F (-6 C):1
Dew Point: 14.0 F (-10.0 C)
Relative Humidity: 53%
Pressure (altimeter): 30.34 in. Hg (1027 hPa)
Pressure tendency: 0.02 inches (0.7 hPa) higher than three hours ago
ob: KMTJ 020253Z AUTO 17007KT 10SM CLR M02/M10 A3034 RMK AO2 SLP297 T10171100 53007
cycle: 3

Station Type Date Time Source
KMTJ TAF 2021/03/01 18:27 UTC NOAA

TAF KMTJ 011725Z 0118/0218 VRB04KT P6SM SKC

Example: see airport list